createdAt,value
2018-08-12T00:00:18.550Z,1.60
2018-08-12T00:02:46.803Z,1.80
2018-08-12T00:05:14.517Z,2.20
2018-08-12T00:07:42.304Z,2.05
2018-08-12T00:10:10.942Z,2.05
2018-08-12T00:12:39.123Z,1.80
2018-08-12T00:15:09.018Z,2.02
2018-08-12T00:17:36.835Z,1.90
2018-08-12T00:20:06.431Z,1.70
2018-08-12T00:22:34.178Z,2.27
2018-08-12T00:25:02.036Z,2.08
2018-08-12T00:27:29.813Z,2.42
2018-08-12T00:29:57.463Z,2.30
2018-08-12T00:32:25.249Z,2.60
2018-08-12T00:34:52.999Z,2.10
2018-08-12T00:37:20.707Z,2.58
2018-08-12T00:39:48.468Z,2.33
2018-08-12T00:42:16.140Z,2.60
2018-08-12T00:44:43.929Z,2.58
2018-08-12T00:47:11.611Z,2.50
2018-08-12T00:49:39.386Z,2.60
2018-08-12T00:52:07.119Z,2.45
2018-08-12T00:54:35.348Z,3.15
2018-08-12T00:57:03.136Z,2.70
2018-08-12T00:59:30.848Z,2.83
2018-08-12T01:01:58.654Z,2.90
2018-08-12T01:04:26.474Z,2.70
2018-08-12T01:06:54.341Z,2.90
2018-08-12T01:09:22.103Z,2.55
2018-08-12T01:11:49.791Z,2.58
2018-08-12T01:14:17.606Z,2.42
2018-08-12T01:16:45.338Z,2.62
2018-08-12T01:19:13.107Z,2.60
2018-08-12T01:21:40.866Z,2.60
2018-08-12T01:24:08.832Z,2.90
2018-08-12T01:26:36.679Z,2.47
2018-08-12T01:29:04.472Z,2.22
2018-08-12T01:31:32.330Z,2.80
2018-08-12T01:34:00.009Z,2.55
2018-08-12T01:36:27.811Z,2.83
2018-08-12T01:38:55.692Z,2.72
2018-08-12T01:41:23.668Z,2.83
2018-08-12T01:43:51.359Z,2.70
2018-08-12T01:46:19.187Z,2.55
2018-08-12T01:48:46.895Z,2.75
2018-08-12T01:51:14.733Z,3.15
2018-08-12T01:53:42.840Z,2.72
2018-08-12T01:56:10.529Z,2.70
2018-08-12T01:58:39.247Z,2.72
2018-08-12T02:01:07.259Z,2.87
2018-08-12T02:03:35.363Z,3.00
2018-08-12T02:06:03.217Z,3.20
2018-08-12T02:08:31.284Z,3.00
2018-08-12T02:10:59.082Z,3.15
2018-08-12T02:13:26.906Z,3.58
2018-08-12T02:15:54.626Z,3.62
2018-08-12T02:18:22.481Z,3.15
2018-08-12T02:20:50.214Z,3.10
2018-08-12T02:23:18.819Z,3.17
2018-08-12T02:25:46.504Z,2.70
2018-08-12T02:28:14.296Z,3.10
2018-08-12T02:30:42.021Z,3.20
2018-08-12T02:33:10.348Z,3.10
2018-08-12T02:35:38.089Z,3.35
2018-08-12T02:38:07.040Z,3.65
2018-08-12T02:40:34.927Z,3.25
2018-08-12T02:43:03.184Z,3.00
2018-08-12T02:45:33.914Z,3.00
2018-08-12T02:48:02.184Z,3.00
2018-08-12T02:50:32.043Z,3.17
2018-08-12T02:53:00.018Z,3.70
2018-08-12T02:55:28.512Z,3.50
2018-08-12T02:57:57.232Z,3.77
2018-08-12T03:00:25.736Z,3.40
2018-08-12T03:02:54.402Z,3.22
2018-08-12T03:05:23.877Z,2.83
2018-08-12T03:07:52.866Z,3.15
2018-08-12T03:10:22.373Z,3.67
2018-08-12T03:12:50.039Z,3.72
2018-08-12T03:15:19.144Z,3.95
2018-08-12T03:17:48.028Z,3.40
2018-08-12T03:20:21.452Z,2.90
2018-08-12T03:22:51.093Z,3.25
2018-08-12T03:25:20.068Z,3.45
2018-08-12T03:27:48.710Z,3.70
2018-08-12T03:30:17.177Z,3.55
2018-08-12T03:32:46.773Z,3.47
2018-08-12T03:35:15.178Z,2.92
2018-08-12T03:37:42.903Z,3.55
2018-08-12T03:40:13.721Z,3.58
2018-08-12T03:42:43.017Z,3.00
2018-08-12T03:45:11.908Z,3.90
2018-08-12T03:47:40.701Z,3.40
2018-08-12T03:50:10.903Z,4.00
2018-08-12T03:52:39.698Z,3.62
2018-08-12T03:55:07.877Z,3.00
2018-08-12T03:57:38.367Z,3.70
2018-08-12T04:00:11.171Z,3.85
2018-08-12T04:02:38.992Z,3.55
2018-08-12T04:05:07.510Z,3.50
2018-08-12T04:07:37.944Z,3.72
2018-08-12T04:10:09.322Z,3.95
2018-08-12T04:12:37.294Z,3.72
2018-08-12T04:15:07.504Z,3.65
2018-08-12T04:17:37.639Z,3.40
2018-08-12T04:20:09.796Z,3.67
2018-08-12T04:22:40.253Z,3.70
2018-08-12T04:25:10.144Z,3.42
2018-08-12T04:27:40.107Z,3.92
2018-08-12T04:30:10.758Z,3.90
2018-08-12T04:32:38.416Z,4.00
2018-08-12T04:35:08.663Z,3.77
2018-08-12T04:37:38.016Z,3.65
2018-08-12T04:40:09.784Z,3.65
2018-08-12T04:42:39.722Z,3.87
2018-08-12T04:45:13.329Z,3.65
2018-08-12T04:47:42.820Z,3.85
2018-08-12T04:50:12.681Z,3.98
2018-08-12T04:52:42.359Z,3.75
2018-08-12T04:55:11.488Z,3.70
2018-08-12T04:57:40.529Z,3.67
2018-08-12T05:00:12.598Z,3.87
2018-08-12T05:02:41.072Z,3.55
2018-08-12T05:05:11.098Z,3.65
2018-08-12T05:07:41.010Z,3.50
2018-08-12T05:10:11.544Z,4.12
2018-08-12T05:12:40.372Z,4.20
2018-08-12T05:15:13.045Z,4.08
2018-08-12T05:17:44.119Z,3.83
2018-08-12T05:20:20.074Z,4.00
2018-08-12T05:22:49.812Z,4.05
2018-08-12T05:25:20.796Z,3.80
2018-08-12T05:27:51.731Z,3.98
2018-08-12T05:30:21.779Z,4.22
2018-08-12T05:32:52.010Z,4.90
2018-08-12T05:35:20.642Z,3.75
2018-08-12T05:37:54.583Z,3.65
2018-08-12T05:40:23.238Z,4.65
2018-08-12T05:42:51.020Z,4.10
2018-08-12T05:45:28.670Z,3.90
2018-08-12T05:47:57.064Z,4.40
2018-08-12T05:50:28.548Z,4.22
2018-08-12T05:52:56.697Z,3.50
2018-08-12T05:55:30.783Z,3.75
2018-08-12T05:58:07.440Z,4.15
2018-08-12T06:00:39.766Z,3.60
2018-08-12T06:03:11.440Z,3.92
2018-08-12T06:05:40.983Z,4.25
2018-08-12T06:08:12.379Z,4.87
2018-08-12T06:10:44.376Z,3.95
2018-08-12T06:13:16.938Z,4.15
2018-08-12T06:15:48.165Z,3.85
2018-08-12T06:18:15.944Z,4.40
2018-08-12T06:20:45.999Z,3.90
2018-08-12T06:23:14.705Z,4.08
2018-08-12T06:25:44.322Z,3.52
2018-08-12T06:28:15.448Z,3.80
2018-08-12T06:30:46.041Z,4.33
2018-08-12T06:33:18.038Z,3.52
2018-08-12T06:38:52.263Z,4.25
2018-08-12T06:41:29.087Z,3.35
2018-08-12T06:44:00.821Z,2.92
2018-08-12T06:46:32.153Z,3.60
2018-08-12T06:49:08.939Z,3.45
2018-08-12T06:51:39.891Z,3.27
2018-08-12T06:54:15.672Z,3.30
2018-08-12T06:59:24.940Z,3.50
2018-08-12T07:01:57.000Z,2.95
2018-08-12T07:04:33.781Z,3.15
2018-08-12T07:07:08.230Z,3.00
2018-08-12T07:09:35.983Z,3.67
2018-08-12T07:12:03.853Z,2.80
2018-08-12T07:14:31.644Z,3.42
2018-08-12T07:16:59.444Z,3.20
2018-08-12T07:19:27.092Z,3.40
2018-08-12T07:21:54.858Z,3.30
2018-08-12T07:24:22.508Z,3.42
2018-08-12T07:26:50.273Z,2.67
2018-08-12T07:29:18.012Z,3.45
2018-08-12T07:31:45.721Z,2.70
2018-08-12T07:34:13.554Z,2.62
2018-08-12T07:36:41.389Z,2.60
2018-08-12T07:39:09.839Z,2.95
2018-08-12T07:41:37.592Z,2.37
2018-08-12T07:44:05.396Z,2.40
2018-08-12T07:46:33.783Z,2.83
2018-08-12T07:49:01.607Z,2.80
2018-08-12T07:51:29.481Z,3.25
2018-08-12T07:53:57.231Z,2.50
2018-08-12T07:56:24.942Z,3.02
2018-08-12T07:58:52.753Z,2.80
2018-08-12T08:01:20.471Z,2.40
2018-08-12T08:03:48.330Z,2.25
2018-08-12T08:06:16.151Z,2.30
2018-08-12T08:08:44.508Z,1.95
2018-08-12T08:11:12.280Z,2.25
2018-08-12T08:13:40.108Z,2.47
2018-08-12T08:16:08.023Z,2.30
2018-08-12T08:18:35.879Z,2.02
2018-08-12T08:21:03.655Z,2.40
2018-08-12T08:23:31.449Z,2.05
2018-08-12T08:25:59.179Z,1.92
2018-08-12T08:28:26.876Z,1.92
2018-08-12T08:30:54.545Z,2.20
2018-08-12T08:33:22.389Z,2.50
2018-08-12T08:35:50.135Z,2.35
2018-08-12T08:38:17.918Z,2.08
2018-08-12T08:40:45.600Z,1.95
2018-08-12T08:43:13.335Z,2.65
2018-08-12T08:45:41.195Z,1.90
2018-08-12T08:48:09.018Z,2.10
2018-08-12T08:50:36.825Z,1.70
2018-08-12T08:53:04.704Z,2.00
2018-08-12T08:55:32.431Z,1.90
2018-08-12T08:58:00.184Z,2.03
2018-08-12T09:00:27.963Z,2.07
2018-08-12T09:02:55.852Z,1.90
2018-08-12T09:05:23.660Z,1.97
2018-08-12T09:07:51.756Z,1.70
2018-08-12T09:10:19.919Z,1.90
2018-08-12T09:12:47.696Z,1.70
2018-08-12T09:15:17.242Z,2.10
2018-08-12T09:17:45.566Z,2.07
2018-08-12T09:20:15.018Z,1.73
2018-08-12T09:22:42.951Z,1.50
2018-08-12T09:25:11.511Z,1.70
2018-08-12T09:27:39.502Z,2.03
2018-08-12T09:30:09.567Z,1.80
2018-08-12T09:32:37.729Z,2.17
2018-08-12T09:35:05.823Z,1.70
2018-08-12T09:37:33.617Z,2.00
2018-08-12T09:40:01.406Z,1.70
2018-08-12T09:42:29.249Z,1.63
2018-08-12T09:44:56.967Z,1.83
2018-08-12T09:47:24.774Z,2.30
2018-08-12T09:49:52.529Z,1.90
2018-08-12T09:52:20.321Z,1.70
2018-08-12T09:54:48.004Z,1.80
2018-08-12T09:57:15.819Z,1.80
2018-08-12T09:59:43.675Z,1.77
2018-08-12T10:02:11.356Z,2.03
2018-08-12T10:04:39.216Z,1.80
2018-08-12T10:07:06.923Z,1.57
2018-08-12T10:09:34.716Z,1.57
2018-08-12T10:12:02.401Z,1.60
2018-08-12T10:14:37.938Z,2.10
2018-08-12T10:17:05.828Z,1.90
2018-08-12T10:19:33.654Z,1.63
2018-08-12T10:22:01.687Z,1.67
2018-08-12T10:24:29.508Z,1.50
2018-08-12T10:26:57.392Z,1.63
2018-08-12T10:29:25.185Z,1.40
2018-08-12T10:31:52.888Z,1.23
2018-08-12T10:34:20.626Z,1.50
2018-08-12T10:36:48.356Z,1.70
2018-08-12T10:39:16.095Z,1.63
2018-08-12T10:41:43.818Z,1.63
2018-08-12T10:44:11.637Z,1.50
2018-08-12T10:46:39.316Z,1.40
2018-08-12T10:49:07.154Z,1.63
2018-08-12T10:51:36.942Z,1.30
2018-08-12T10:54:05.000Z,1.40
2018-08-12T10:56:41.897Z,1.60
2018-08-12T10:59:09.768Z,1.50
2018-08-12T11:01:41.998Z,1.30
2018-08-12T11:04:13.684Z,1.40
2018-08-12T11:06:51.634Z,1.40
2018-08-12T11:09:26.414Z,1.50
2018-08-12T11:12:02.120Z,1.50
2018-08-12T11:14:34.873Z,1.33
2018-08-12T11:17:14.041Z,1.47
2018-08-12T11:19:50.918Z,1.47
2018-08-12T11:22:18.770Z,1.43
2018-08-12T11:24:47.487Z,1.40
2018-08-12T11:27:16.212Z,1.53
2018-08-12T11:29:43.989Z,1.57
2018-08-12T11:32:16.917Z,1.50
2018-08-12T11:34:45.643Z,1.33
2018-08-12T11:37:13.404Z,1.53
2018-08-12T11:39:41.984Z,1.73
2018-08-12T11:42:09.827Z,1.47
2018-08-12T11:44:37.512Z,1.90
2018-08-12T11:47:05.220Z,1.60
2018-08-12T11:49:33.180Z,1.50
2018-08-12T11:52:01.868Z,1.40
2018-08-12T11:54:30.177Z,1.47
2018-08-12T11:56:57.983Z,1.40
2018-08-12T11:59:25.808Z,1.40
2018-08-12T12:01:53.570Z,1.73
2018-08-12T12:04:21.618Z,1.80
2018-08-12T12:06:52.146Z,1.30
2018-08-12T12:09:19.940Z,1.60
2018-08-12T12:11:47.631Z,1.43
2018-08-12T12:14:21.869Z,2.77
2018-08-12T12:16:49.479Z,1.60
2018-08-12T12:19:19.493Z,3.73
2018-08-12T12:21:47.983Z,8.50
2018-08-12T12:24:15.660Z,2.00
2018-08-12T12:26:43.338Z,1.60
2018-08-12T12:29:10.988Z,1.50
2018-08-12T12:31:38.787Z,1.70
2018-08-12T12:34:06.823Z,1.70
2018-08-12T12:36:34.550Z,1.93
2018-08-12T12:39:02.215Z,1.77
2018-08-12T12:41:29.902Z,1.60
2018-08-12T12:43:57.502Z,2.10
2018-08-12T12:46:25.288Z,2.20
2018-08-12T12:48:53.117Z,2.10
2018-08-12T12:51:20.790Z,1.67
2018-08-12T12:53:48.378Z,1.67
2018-08-12T12:56:16.072Z,1.93
2018-08-12T12:58:43.667Z,1.43
2018-08-12T13:01:11.377Z,1.57
2018-08-12T13:03:39.082Z,1.73
2018-08-12T13:06:06.729Z,1.77
2018-08-12T13:08:34.422Z,1.70
2018-08-12T13:11:02.074Z,1.43
2018-08-12T13:13:29.770Z,2.00
2018-08-12T13:15:57.417Z,2.90
2018-08-12T13:18:25.131Z,2.13
2018-08-12T13:20:52.818Z,1.80
2018-08-12T13:23:20.499Z,1.60
2018-08-12T13:25:48.154Z,1.57
2018-08-12T13:28:15.846Z,1.47
2018-08-12T13:30:44.830Z,1.40
2018-08-12T13:33:12.537Z,5.40
2018-08-12T13:35:40.352Z,1.30
2018-08-12T13:38:08.184Z,1.70
2018-08-12T13:40:38.334Z,1.40
2018-08-12T13:43:06.405Z,1.47
2018-08-12T13:45:35.016Z,1.53
2018-08-12T13:48:02.900Z,1.47
2018-08-12T13:50:32.665Z,1.40
2018-08-12T13:53:00.338Z,1.30
2018-08-12T13:55:28.707Z,1.50
2018-08-12T13:57:56.453Z,1.27
2018-08-12T14:00:25.354Z,1.90
2018-08-12T14:02:53.225Z,1.70
2018-08-12T14:05:57.371Z,2.00
2018-08-12T14:15:18.491Z,1.50
2018-08-12T14:17:48.095Z,1.40
2018-08-12T14:20:17.296Z,1.37
2018-08-12T14:22:45.126Z,1.30
2018-08-12T14:25:13.088Z,1.60
2018-08-12T14:27:41.890Z,1.50
2018-08-12T14:48:13.529Z,1.50
2018-08-12T14:50:55.945Z,1.50
2018-08-12T15:08:19.518Z,1.43
2018-08-12T15:14:21.180Z,1.30
2018-08-12T15:17:17.020Z,1.67
2018-08-12T15:20:03.684Z,1.60
2018-08-12T15:23:01.029Z,1.40
2018-08-12T15:25:53.832Z,1.37
2018-08-12T15:31:30.018Z,1.30
2018-08-12T15:37:04.817Z,1.60
2018-08-12T15:39:40.472Z,1.80
2018-08-12T15:42:20.392Z,1.50
2018-08-12T15:45:10.254Z,1.43
2018-08-12T15:47:39.076Z,1.40
2018-08-12T15:50:10.648Z,1.50
2018-08-12T15:52:42.609Z,1.60
2018-08-12T15:55:10.672Z,1.53
2018-08-12T15:57:48.017Z,1.60
2018-08-12T16:00:26.455Z,1.40
2018-08-12T16:02:56.986Z,1.63
2018-08-12T16:05:28.442Z,1.40
2018-08-12T16:07:58.327Z,2.10
2018-08-12T16:10:27.973Z,1.80
2018-08-12T16:13:00.832Z,1.37
2018-08-12T16:15:31.276Z,1.60
2018-08-12T16:18:03.008Z,1.40
2018-08-12T16:20:35.089Z,1.90
2018-08-12T16:23:03.976Z,1.50
2018-08-12T16:25:32.599Z,1.70
2018-08-12T16:28:00.415Z,1.83
2018-08-12T16:30:46.469Z,2.20
2018-08-12T16:33:14.223Z,1.50
2018-08-12T16:35:41.939Z,1.80
2018-08-12T16:38:09.704Z,1.43
2018-08-12T16:40:37.484Z,1.70
2018-08-12T16:43:05.361Z,1.63
2018-08-12T16:45:34.478Z,2.03
2018-08-12T16:48:02.592Z,1.80
2018-08-12T16:50:31.669Z,1.63
2018-08-12T16:53:00.269Z,1.50
2018-08-12T16:55:28.127Z,1.90
2018-08-12T16:57:56.437Z,1.90
2018-08-12T17:00:24.616Z,2.17
2018-08-12T17:02:52.504Z,1.80
2018-08-12T17:05:21.878Z,1.77
2018-08-12T17:07:49.811Z,1.50
2018-08-12T17:10:18.360Z,1.50
2018-08-12T17:12:46.183Z,1.60
2018-08-12T17:15:16.271Z,2.10
2018-08-12T17:17:51.414Z,1.60
2018-08-12T17:20:20.295Z,1.60
2018-08-12T17:22:48.475Z,1.50
2018-08-12T17:25:16.845Z,1.90
2018-08-12T17:27:44.623Z,1.80
2018-08-12T17:30:16.879Z,1.50
2018-08-12T17:32:52.469Z,1.50
2018-08-12T17:35:21.054Z,1.60
2018-08-12T17:37:48.798Z,1.73
2018-08-12T17:40:17.585Z,1.70
2018-08-12T17:42:45.337Z,1.67
2018-08-12T17:45:14.353Z,1.50
2018-08-12T17:47:42.203Z,2.00
2018-08-12T17:50:11.565Z,1.70
2018-08-12T17:52:39.540Z,1.80
2018-08-12T17:55:08.832Z,1.90
2018-08-12T17:57:36.581Z,1.60
2018-08-12T18:00:06.781Z,1.50
2018-08-12T18:02:34.633Z,1.60
2018-08-12T18:05:02.343Z,1.90
2018-08-12T18:07:30.212Z,1.90
2018-08-12T18:09:57.905Z,1.93
2018-08-12T18:12:25.711Z,1.67
2018-08-12T18:14:55.645Z,1.80
2018-08-12T18:17:25.328Z,1.80
2018-08-12T18:19:55.377Z,1.70
2018-08-12T18:22:23.204Z,1.70
2018-08-12T18:24:53.892Z,1.57
2018-08-12T18:27:25.357Z,1.90
2018-08-12T18:29:55.660Z,1.77
2018-08-12T18:32:23.518Z,2.57
2018-08-12T18:34:51.296Z,2.00
2018-08-12T18:37:19.089Z,2.00
2018-08-12T18:39:51.432Z,1.97
2018-08-12T18:42:27.219Z,2.37
2018-08-12T18:44:57.986Z,1.67
2018-08-12T18:47:30.551Z,1.60
2018-08-12T18:50:04.207Z,1.80
2018-08-12T18:52:39.083Z,2.10
2018-08-12T18:55:13.236Z,2.47
2018-08-12T18:57:43.755Z,2.77
2018-08-12T19:00:16.400Z,2.20
2018-08-12T19:02:48.813Z,4.63
2018-08-12T19:05:18.348Z,2.77
2018-08-12T19:07:51.297Z,1.80
2018-08-12T19:10:22.620Z,3.80
2018-08-12T19:12:56.398Z,1.77
2018-08-12T19:15:27.837Z,2.23
2018-08-12T19:17:57.471Z,1.60
2018-08-12T19:20:27.069Z,2.10
2018-08-12T19:22:56.114Z,1.60
2018-08-12T19:25:26.588Z,1.60
2018-08-12T19:27:56.525Z,1.97
2018-08-12T19:30:27.952Z,1.80
2018-08-12T19:32:59.361Z,2.17
2018-08-12T19:35:30.687Z,1.80
2018-08-12T19:38:00.865Z,2.00
2018-08-12T19:40:31.861Z,2.00
2018-08-12T19:43:00.641Z,1.63
2018-08-12T19:45:30.634Z,2.00
2018-08-12T19:48:03.469Z,1.90
2018-08-12T19:50:33.148Z,1.90
2018-08-12T19:53:01.035Z,1.47
2018-08-12T19:55:28.782Z,1.63
2018-08-12T19:57:57.716Z,2.50
2018-08-12T20:00:25.412Z,2.10
2018-08-12T20:02:53.978Z,2.17
2018-08-12T20:05:23.968Z,2.00
2018-08-12T20:07:54.004Z,2.10
2018-08-12T20:10:21.832Z,2.10
2018-08-12T20:12:52.611Z,2.10
2018-08-12T20:15:28.312Z,3.20
2018-08-12T20:17:59.486Z,3.30
2018-08-12T20:20:33.340Z,5.23
2018-08-12T20:23:04.379Z,6.20
2018-08-12T20:25:33.012Z,6.63
2018-08-12T20:28:03.022Z,5.80
2018-08-12T20:30:32.172Z,5.80
2018-08-12T20:33:04.069Z,4.90
2018-08-12T20:35:34.707Z,5.57
2018-08-12T20:38:04.129Z,4.80
2018-08-12T20:40:36.173Z,5.70
2018-08-12T20:43:09.460Z,4.17
2018-08-12T20:45:39.890Z,4.37
2018-08-12T20:48:12.804Z,4.13
2018-08-12T20:50:46.832Z,4.27
2018-08-12T20:53:15.640Z,3.57
2018-08-12T20:55:50.155Z,3.60
2018-08-12T20:58:27.775Z,3.63
2018-08-12T21:01:04.103Z,3.43
2018-08-12T21:03:41.168Z,3.20
2018-08-12T21:06:13.979Z,3.30
2018-08-12T21:08:46.745Z,2.90
2018-08-12T21:11:20.163Z,2.90
2018-08-12T21:13:56.705Z,2.63
2018-08-12T21:16:32.708Z,2.10
2018-08-12T21:19:05.735Z,2.77
2018-08-12T21:21:42.387Z,2.40
2018-08-12T21:24:14.363Z,2.50
2018-08-12T21:26:50.862Z,2.20
2018-08-12T21:29:24.658Z,2.33
2018-08-12T21:31:59.871Z,2.30
2018-08-12T21:34:34.590Z,2.10
2018-08-12T21:37:09.501Z,2.73
2018-08-12T21:39:48.224Z,2.57
2018-08-12T21:42:23.713Z,2.42
2018-08-12T21:44:55.186Z,2.23
2018-08-12T21:47:31.979Z,2.53
2018-08-12T21:50:04.480Z,2.37
2018-08-12T21:52:38.840Z,2.60
2018-08-12T21:55:14.998Z,2.20
2018-08-12T21:57:54.311Z,2.30
2018-08-12T22:00:35.456Z,2.30
2018-08-12T22:03:15.422Z,1.92
2018-08-12T22:05:48.349Z,2.30
2018-08-12T22:08:20.282Z,2.30
2018-08-12T22:10:56.510Z,2.37
